sensor_id;sensor_type;location;lat;lon;timestamp;P1;durP1;ratioP1;P2;durP2;ratioP2
68938;SDS011;59064;45.294;11.816;2023-04-25T00:00:46;5.70;;;3.50;;
68938;SDS011;59064;45.294;11.816;2023-04-25T00:03:14;6.20;;;4.40;;
68938;SDS011;59064;45.294;11.816;2023-04-25T00:05:44;7.10;;;4.00;;
68938;SDS011;59064;45.294;11.816;2023-04-25T00:08:10;7.90;;;4.60;;
68938;SDS011;59064;45.294;11.816;2023-04-25T00:10:36;5.90;;;3.70;;
68938;SDS011;59064;45.294;11.816;2023-04-25T00:13:04;6.60;;;4.50;;
68938;SDS011;59064;45.294;11.816;2023-04-25T00:15:31;6.10;;;4.20;;
68938;SDS011;59064;45.294;11.816;2023-04-25T00:17:56;7.90;;;4.50;;
68938;SDS011;59064;45.294;11.816;2023-04-25T00:20:23;7.40;;;4.80;;
68938;SDS011;59064;45.294;11.816;2023-04-25T00:22:50;6.30;;;4.50;;
68938;SDS011;59064;45.294;11.816;2023-04-25T00:25:17;6.80;;;4.50;;
68938;SDS011;59064;45.294;11.816;2023-04-25T00:27:43;8.70;;;5.00;;
68938;SDS011;59064;45.294;11.816;2023-04-25T00:30:08;7.20;;;4.40;;
68938;SDS011;59064;45.294;11.816;2023-04-25T00:32:34;5.50;;;3.80;;
68938;SDS011;59064;45.294;11.816;2023-04-25T00:35:01;9.30;;;5.30;;
68938;SDS011;59064;45.294;11.816;2023-04-25T00:37:30;7.30;;;4.10;;
68938;SDS011;59064;45.294;11.816;2023-04-25T00:39:57;6.40;;;4.10;;
68938;SDS011;59064;45.294;11.816;2023-04-25T00:42:23;7.00;;;4.70;;
68938;SDS011;59064;45.294;11.816;2023-04-25T00:44:50;8.50;;;4.80;;
68938;SDS011;59064;45.294;11.816;2023-04-25T00:47:17;7.70;;;5.30;;
68938;SDS011;59064;45.294;11.816;2023-04-25T00:49:43;7.30;;;5.10;;
68938;SDS011;59064;45.294;11.816;2023-04-25T00:52:09;7.50;;;4.80;;
68938;SDS011;59064;45.294;11.816;2023-04-25T00:54:36;8.60;;;5.40;;
68938;SDS011;59064;45.294;11.816;2023-04-25T00:57:02;7.90;;;5.80;;
68938;SDS011;59064;45.294;11.816;2023-04-25T00:59:28;7.40;;;4.70;;
68938;SDS011;59064;45.294;11.816;2023-04-25T01:01:58;7.00;;;4.90;;
68938;SDS011;59064;45.294;11.816;2023-04-25T01:04:27;8.40;;;5.60;;
68938;SDS011;59064;45.294;11.816;2023-04-25T01:06:53;9.50;;;6.00;;
68938;SDS011;59064;45.294;11.816;2023-04-25T01:09:19;8.90;;;5.90;;
68938;SDS011;59064;45.294;11.816;2023-04-25T01:11:46;9.20;;;5.70;;
68938;SDS011;59064;45.294;11.816;2023-04-25T01:14:16;8.30;;;5.90;;
68938;SDS011;59064;45.294;11.816;2023-04-25T01:16:41;8.40;;;5.50;;
68938;SDS011;59064;45.294;11.816;2023-04-25T01:19:10;9.30;;;6.90;;
68938;SDS011;59064;45.294;11.816;2023-04-25T01:21:37;10.90;;;7.20;;
68938;SDS011;59064;45.294;11.816;2023-04-25T01:24:03;9.70;;;6.90;;
68938;SDS011;59064;45.294;11.816;2023-04-25T01:26:29;9.00;;;5.90;;
68938;SDS011;59064;45.294;11.816;2023-04-25T01:28:55;7.80;;;5.50;;
68938;SDS011;59064;45.294;11.816;2023-04-25T01:31:22;9.20;;;5.90;;
68938;SDS011;59064;45.294;11.816;2023-04-25T01:33:47;8.40;;;5.80;;
68938;SDS011;59064;45.294;11.816;2023-04-25T01:36:13;10.00;;;6.90;;
68938;SDS011;59064;45.294;11.816;2023-04-25T01:38:42;8.30;;;6.20;;
68938;SDS011;59064;45.294;11.816;2023-04-25T01:41:12;9.90;;;5.80;;
68938;SDS011;59064;45.294;11.816;2023-04-25T01:43:40;10.80;;;6.80;;
68938;SDS011;59064;45.294;11.816;2023-04-25T01:46:06;9.90;;;7.00;;
68938;SDS011;59064;45.294;11.816;2023-04-25T01:48:33;9.70;;;7.10;;
68938;SDS011;59064;45.294;11.816;2023-04-25T01:50:58;10.10;;;6.60;;
68938;SDS011;59064;45.294;11.816;2023-04-25T01:53:25;10.30;;;7.20;;
68938;SDS011;59064;45.294;11.816;2023-04-25T01:55:51;10.10;;;7.10;;
68938;SDS011;59064;45.294;11.816;2023-04-25T01:58:19;9.40;;;6.80;;
68938;SDS011;59064;45.294;11.816;2023-04-25T02:00:48;9.90;;;7.10;;
68938;SDS011;59064;45.294;11.816;2023-04-25T02:03:13;10.70;;;7.90;;
68938;SDS011;59064;45.294;11.816;2023-04-25T02:05:40;9.20;;;7.30;;
68938;SDS011;59064;45.294;11.816;2023-04-25T02:08:06;10.20;;;7.50;;
68938;SDS011;59064;45.294;11.816;2023-04-25T02:10:34;12.20;;;8.50;;
68938;SDS011;59064;45.294;11.816;2023-04-25T02:12:59;12.00;;;8.00;;
68938;SDS011;59064;45.294;11.816;2023-04-25T02:15:26;10.70;;;8.20;;
68938;SDS011;59064;45.294;11.816;2023-04-25T02:17:51;10.50;;;7.90;;
68938;SDS011;59064;45.294;11.816;2023-04-25T02:20:21;11.00;;;7.90;;
68938;SDS011;59064;45.294;11.816;2023-04-25T02:22:47;12.90;;;8.50;;
68938;SDS011;59064;45.294;11.816;2023-04-25T02:25:13;10.50;;;8.10;;
68938;SDS011;59064;45.294;11.816;2023-04-25T02:27:41;12.10;;;8.10;;
68938;SDS011;59064;45.294;11.816;2023-04-25T02:30:07;10.70;;;7.10;;
68938;SDS011;59064;45.294;11.816;2023-04-25T02:32:33;9.20;;;6.60;;
68938;SDS011;59064;45.294;11.816;2023-04-25T02:34:59;10.30;;;7.20;;
68938;SDS011;59064;45.294;11.816;2023-04-25T02:37:29;8.80;;;6.80;;
68938;SDS011;59064;45.294;11.816;2023-04-25T02:39:55;9.00;;;5.80;;
68938;SDS011;59064;45.294;11.816;2023-04-25T02:42:21;8.40;;;6.20;;
68938;SDS011;59064;45.294;11.816;2023-04-25T02:44:47;10.10;;;5.80;;
68938;SDS011;59064;45.294;11.816;2023-04-25T02:47:12;8.00;;;5.60;;
68938;SDS011;59064;45.294;11.816;2023-04-25T02:49:38;8.00;;;5.70;;
68938;SDS011;59064;45.294;11.816;2023-04-25T02:52:03;10.00;;;6.80;;
68938;SDS011;59064;45.294;11.816;2023-04-25T02:54:29;8.40;;;6.30;;
68938;SDS011;59064;45.294;11.816;2023-04-25T02:57:01;8.50;;;5.20;;
68938;SDS011;59064;45.294;11.816;2023-04-25T02:59:32;7.80;;;5.70;;
68938;SDS011;59064;45.294;11.816;2023-04-25T03:01:58;9.80;;;5.10;;
68938;SDS011;59064;45.294;11.816;2023-04-25T03:04:30;6.60;;;3.70;;
68938;SDS011;59064;45.294;11.816;2023-04-25T03:06:56;4.50;;;2.50;;
68938;SDS011;59064;45.294;11.816;2023-04-25T03:09:22;5.60;;;2.60;;
68938;SDS011;59064;45.294;11.816;2023-04-25T03:11:50;5.60;;;3.20;;
68938;SDS011;59064;45.294;11.816;2023-04-25T03:14:18;6.60;;;3.80;;
68938;SDS011;59064;45.294;11.816;2023-04-25T03:16:44;7.70;;;4.00;;
68938;SDS011;59064;45.294;11.816;2023-04-25T03:19:12;6.00;;;3.50;;
68938;SDS011;59064;45.294;11.816;2023-04-25T03:21:45;4.50;;;2.30;;
68938;SDS011;59064;45.294;11.816;2023-04-25T03:24:16;5.30;;;3.60;;
68938;SDS011;59064;45.294;11.816;2023-04-25T03:26:42;4.50;;;2.70;;
68938;SDS011;59064;45.294;11.816;2023-04-25T03:29:09;6.30;;;4.10;;
68938;SDS011;59064;45.294;11.816;2023-04-25T03:31:38;6.60;;;3.80;;
68938;SDS011;59064;45.294;11.816;2023-04-25T03:34:06;6.70;;;3.30;;
68938;SDS011;59064;45.294;11.816;2023-04-25T03:36:35;4.60;;;2.80;;
68938;SDS011;59064;45.294;11.816;2023-04-25T03:39:03;7.40;;;4.30;;
68938;SDS011;59064;45.294;11.816;2023-04-25T03:41:31;7.10;;;4.40;;
68938;SDS011;59064;45.294;11.816;2023-04-25T03:43:56;6.20;;;3.90;;
68938;SDS011;59064;45.294;11.816;2023-04-25T03:46:25;6.80;;;4.30;;
68938;SDS011;59064;45.294;11.816;2023-04-25T03:48:53;6.30;;;3.90;;
68938;SDS011;59064;45.294;11.816;2023-04-25T03:51:21;7.30;;;3.70;;
68938;SDS011;59064;45.294;11.816;2023-04-25T03:53:47;5.90;;;3.90;;
68938;SDS011;59064;45.294;11.816;2023-04-25T03:56:13;6.60;;;3.80;;
68938;SDS011;59064;45.294;11.816;2023-04-25T03:58:44;6.10;;;3.20;;
68938;SDS011;59064;45.294;11.816;2023-04-25T04:01:10;5.80;;;3.80;;
68938;SDS011;59064;45.294;11.816;2023-04-25T04:03:35;4.70;;;2.60;;
68938;SDS011;59064;45.294;11.816;2023-04-25T04:06:03;5.70;;;3.30;;
68938;SDS011;59064;45.294;11.816;2023-04-25T04:08:30;7.40;;;4.00;;
68938;SDS011;59064;45.294;11.816;2023-04-25T04:10:59;6.20;;;3.30;;
68938;SDS011;59064;45.294;11.816;2023-04-25T04:13:26;5.80;;;3.00;;
68938;SDS011;59064;45.294;11.816;2023-04-25T04:15:52;5.80;;;2.50;;
68938;SDS011;59064;45.294;11.816;2023-04-25T04:18:18;6.00;;;2.80;;
68938;SDS011;59064;45.294;11.816;2023-04-25T04:20:44;5.30;;;2.50;;
68938;SDS011;59064;45.294;11.816;2023-04-25T04:23:10;5.00;;;2.50;;
68938;SDS011;59064;45.294;11.816;2023-04-25T04:25:36;5.20;;;2.60;;
68938;SDS011;59064;45.294;11.816;2023-04-25T04:28:03;4.20;;;2.10;;
68938;SDS011;59064;45.294;11.816;2023-04-25T04:30:28;4.60;;;2.50;;
68938;SDS011;59064;45.294;11.816;2023-04-25T04:32:54;4.10;;;2.10;;
68938;SDS011;59064;45.294;11.816;2023-04-25T04:35:21;4.90;;;2.10;;
68938;SDS011;59064;45.294;11.816;2023-04-25T04:37:53;3.70;;;2.00;;
68938;SDS011;59064;45.294;11.816;2023-04-25T04:40:22;5.30;;;2.10;;
68938;SDS011;59064;45.294;11.816;2023-04-25T04:42:50;6.50;;;3.80;;
68938;SDS011;59064;45.294;11.816;2023-04-25T04:45:21;6.20;;;3.70;;
68938;SDS011;59064;45.294;11.816;2023-04-25T04:47:59;7.20;;;4.20;;
68938;SDS011;59064;45.294;11.816;2023-04-25T04:50:30;7.20;;;4.20;;
68938;SDS011;59064;45.294;11.816;2023-04-25T04:53:03;7.80;;;4.20;;
68938;SDS011;59064;45.294;11.816;2023-04-25T04:55:35;6.80;;;4.10;;
68938;SDS011;59064;45.294;11.816;2023-04-25T04:58:00;5.70;;;2.40;;
68938;SDS011;59064;45.294;11.816;2023-04-25T05:00:27;3.80;;;2.60;;
68938;SDS011;59064;45.294;11.816;2023-04-25T05:02:57;3.50;;;2.10;;
68938;SDS011;59064;45.294;11.816;2023-04-25T05:05:23;3.30;;;1.50;;
68938;SDS011;59064;45.294;11.816;2023-04-25T05:07:51;4.20;;;2.00;;
68938;SDS011;59064;45.294;11.816;2023-04-25T05:10:23;5.60;;;3.90;;
68938;SDS011;59064;45.294;11.816;2023-04-25T05:12:49;4.20;;;2.70;;
68938;SDS011;59064;45.294;11.816;2023-04-25T05:15:17;8.50;;;2.80;;
68938;SDS011;59064;45.294;11.816;2023-04-25T05:17:49;6.80;;;3.90;;
68938;SDS011;59064;45.294;11.816;2023-04-25T05:20:20;6.50;;;2.60;;
68938;SDS011;59064;45.294;11.816;2023-04-25T05:22:45;4.30;;;2.80;;
68938;SDS011;59064;45.294;11.816;2023-04-25T05:25:11;5.30;;;3.30;;
68938;SDS011;59064;45.294;11.816;2023-04-25T05:27:38;4.40;;;2.70;;
68938;SDS011;59064;45.294;11.816;2023-04-25T05:30:07;5.20;;;2.60;;
68938;SDS011;59064;45.294;11.816;2023-04-25T05:32:34;4.40;;;2.40;;
68938;SDS011;59064;45.294;11.816;2023-04-25T05:34:59;6.70;;;3.30;;
68938;SDS011;59064;45.294;11.816;2023-04-25T05:37:25;5.50;;;3.70;;
68938;SDS011;59064;45.294;11.816;2023-04-25T05:39:52;5.20;;;3.00;;
68938;SDS011;59064;45.294;11.816;2023-04-25T05:42:18;4.80;;;2.70;;
68938;SDS011;59064;45.294;11.816;2023-04-25T05:44:44;6.20;;;3.60;;
68938;SDS011;59064;45.294;11.816;2023-04-25T05:47:13;5.00;;;2.60;;
68938;SDS011;59064;45.294;11.816;2023-04-25T05:49:42;6.70;;;3.10;;
68938;SDS011;59064;45.294;11.816;2023-04-25T05:52:10;4.10;;;2.40;;
68938;SDS011;59064;45.294;11.816;2023-04-25T05:54:36;6.30;;;3.40;;
68938;SDS011;59064;45.294;11.816;2023-04-25T05:57:01;4.50;;;2.80;;
68938;SDS011;59064;45.294;11.816;2023-04-25T05:59:30;5.30;;;2.90;;
68938;SDS011;59064;45.294;11.816;2023-04-25T06:01:55;3.70;;;2.50;;
68938;SDS011;59064;45.294;11.816;2023-04-25T06:04:25;6.30;;;3.50;;
68938;SDS011;59064;45.294;11.816;2023-04-25T06:06:53;6.60;;;3.50;;
68938;SDS011;59064;45.294;11.816;2023-04-25T06:09:19;6.10;;;4.00;;
68938;SDS011;59064;45.294;11.816;2023-04-25T06:11:46;6.60;;;4.30;;
68938;SDS011;59064;45.294;11.816;2023-04-25T06:14:11;5.00;;;3.10;;
68938;SDS011;59064;45.294;11.816;2023-04-25T06:16:39;5.80;;;3.20;;
68938;SDS011;59064;45.294;11.816;2023-04-25T06:19:08;7.30;;;3.80;;
68938;SDS011;59064;45.294;11.816;2023-04-25T06:21:40;5.60;;;3.10;;
68938;SDS011;59064;45.294;11.816;2023-04-25T06:24:07;5.40;;;2.80;;
68938;SDS011;59064;45.294;11.816;2023-04-25T06:26:33;7.30;;;4.70;;
68938;SDS011;59064;45.294;11.816;2023-04-25T06:29:00;8.30;;;4.30;;
68938;SDS011;59064;45.294;11.816;2023-04-25T06:31:31;7.10;;;4.80;;
68938;SDS011;59064;45.294;11.816;2023-04-25T06:33:58;6.50;;;3.60;;
68938;SDS011;59064;45.294;11.816;2023-04-25T06:36:23;6.70;;;4.50;;
68938;SDS011;59064;45.294;11.816;2023-04-25T06:38:51;7.30;;;4.40;;
68938;SDS011;59064;45.294;11.816;2023-04-25T06:41:17;5.90;;;4.40;;
68938;SDS011;59064;45.294;11.816;2023-04-25T06:43:43;5.50;;;3.50;;
68938;SDS011;59064;45.294;11.816;2023-04-25T06:46:12;5.10;;;3.50;;
68938;SDS011;59064;45.294;11.816;2023-04-25T06:48:37;4.90;;;3.50;;
68938;SDS011;59064;45.294;11.816;2023-04-25T06:51:06;4.20;;;2.80;;
68938;SDS011;59064;45.294;11.816;2023-04-25T06:53:38;6.30;;;3.30;;
68938;SDS011;59064;45.294;11.816;2023-04-25T06:56:05;4.40;;;2.50;;
68938;SDS011;59064;45.294;11.816;2023-04-25T06:58:31;4.30;;;2.60;;
68938;SDS011;59064;45.294;11.816;2023-04-25T07:00:56;6.90;;;2.60;;
68938;SDS011;59064;45.294;11.816;2023-04-25T07:03:22;4.80;;;1.70;;
68938;SDS011;59064;45.294;11.816;2023-04-25T07:05:49;4.10;;;1.60;;
68938;SDS011;59064;45.294;11.816;2023-04-25T07:08:15;3.10;;;1.70;;
68938;SDS011;59064;45.294;11.816;2023-04-25T07:10:40;3.50;;;1.60;;
68938;SDS011;59064;45.294;11.816;2023-04-25T07:13:06;3.30;;;1.70;;
68938;SDS011;59064;45.294;11.816;2023-04-25T07:15:35;3.60;;;1.90;;
68938;SDS011;59064;45.294;11.816;2023-04-25T07:18:00;3.60;;;1.60;;
68938;SDS011;59064;45.294;11.816;2023-04-25T07:20:26;4.40;;;1.60;;
68938;SDS011;59064;45.294;11.816;2023-04-25T07:22:53;4.20;;;1.60;;
68938;SDS011;59064;45.294;11.816;2023-04-25T07:25:19;4.40;;;1.80;;
68938;SDS011;59064;45.294;11.816;2023-04-25T07:27:45;4.20;;;1.90;;
68938;SDS011;59064;45.294;11.816;2023-04-25T07:30:11;4.90;;;1.80;;
68938;SDS011;59064;45.294;11.816;2023-04-25T07:32:37;2.70;;;1.40;;
68938;SDS011;59064;45.294;11.816;2023-04-25T07:35:03;3.50;;;1.70;;
68938;SDS011;59064;45.294;11.816;2023-04-25T07:37:29;6.50;;;3.20;;
68938;SDS011;59064;45.294;11.816;2023-04-25T07:39:55;4.30;;;2.00;;
68938;SDS011;59064;45.294;11.816;2023-04-25T07:42:26;5.30;;;2.80;;
68938;SDS011;59064;45.294;11.816;2023-04-25T07:44:52;4.60;;;1.70;;
68938;SDS011;59064;45.294;11.816;2023-04-25T07:49:58;4.40;;;1.50;;
68938;SDS011;59064;45.294;11.816;2023-04-25T07:52:24;4.90;;;1.30;;
68938;SDS011;59064;45.294;11.816;2023-04-25T07:54:49;3.10;;;1.40;;
68938;SDS011;59064;45.294;11.816;2023-04-25T07:57:15;3.20;;;1.30;;
68938;SDS011;59064;45.294;11.816;2023-04-25T07:59:42;2.70;;;1.20;;
68938;SDS011;59064;45.294;11.816;2023-04-25T08:02:10;3.50;;;1.20;;
68938;SDS011;59064;45.294;11.816;2023-04-25T08:04:36;3.80;;;1.10;;
68938;SDS011;59064;45.294;11.816;2023-04-25T08:07:05;3.50;;;1.30;;
68938;SDS011;59064;45.294;11.816;2023-04-25T08:09:34;4.60;;;1.20;;
68938;SDS011;59064;45.294;11.816;2023-04-25T08:12:01;3.40;;;1.20;;
68938;SDS011;59064;45.294;11.816;2023-04-25T08:14:27;2.50;;;1.00;;
68938;SDS011;59064;45.294;11.816;2023-04-25T08:16:56;3.90;;;1.30;;
68938;SDS011;59064;45.294;11.816;2023-04-25T08:19:24;3.30;;;1.50;;
68938;SDS011;59064;45.294;11.816;2023-04-25T08:21:50;3.50;;;1.60;;
68938;SDS011;59064;45.294;11.816;2023-04-25T08:24:20;3.10;;;1.60;;
68938;SDS011;59064;45.294;11.816;2023-04-25T08:26:57;3.00;;;1.30;;
68938;SDS011;59064;45.294;11.816;2023-04-25T08:29:27;2.80;;;1.30;;
68938;SDS011;59064;45.294;11.816;2023-04-25T08:31:53;3.10;;;1.00;;
68938;SDS011;59064;45.294;11.816;2023-04-25T08:34:19;5.20;;;1.80;;
68938;SDS011;59064;45.294;11.816;2023-04-25T08:36:51;5.00;;;1.50;;
68938;SDS011;59064;45.294;11.816;2023-04-25T08:39:17;3.10;;;1.70;;
68938;SDS011;59064;45.294;11.816;2023-04-25T08:41:52;5.30;;;2.10;;
68938;SDS011;59064;45.294;11.816;2023-04-25T08:44:26;4.00;;;2.00;;
68938;SDS011;59064;45.294;11.816;2023-04-25T08:46:52;5.30;;;1.90;;
68938;SDS011;59064;45.294;11.816;2023-04-25T08:49:25;3.40;;;1.80;;
68938;SDS011;59064;45.294;11.816;2023-04-25T08:51:52;5.20;;;2.50;;
68938;SDS011;59064;45.294;11.816;2023-04-25T08:54:24;4.00;;;2.60;;
68938;SDS011;59064;45.294;11.816;2023-04-25T08:56:54;5.20;;;2.50;;
68938;SDS011;59064;45.294;11.816;2023-04-25T08:59:23;6.50;;;3.50;;
68938;SDS011;59064;45.294;11.816;2023-04-25T09:01:49;4.70;;;3.20;;
68938;SDS011;59064;45.294;11.816;2023-04-25T09:04:16;7.00;;;3.80;;
68938;SDS011;59064;45.294;11.816;2023-04-25T09:06:45;6.20;;;3.30;;
68938;SDS011;59064;45.294;11.816;2023-04-25T09:09:17;4.90;;;2.90;;
68938;SDS011;59064;45.294;11.816;2023-04-25T09:11:43;5.20;;;2.60;;
68938;SDS011;59064;45.294;11.816;2023-04-25T09:14:16;5.60;;;3.40;;
68938;SDS011;59064;45.294;11.816;2023-04-25T09:22:02;5.20;;;2.60;;
68938;SDS011;59064;45.294;11.816;2023-04-25T09:24:33;4.00;;;2.40;;
68938;SDS011;59064;45.294;11.816;2023-04-25T09:27:11;5.00;;;1.90;;
68938;SDS011;59064;45.294;11.816;2023-04-25T09:29:39;4.50;;;2.40;;
68938;SDS011;59064;45.294;11.816;2023-04-25T09:32:16;3.70;;;2.10;;
68938;SDS011;59064;45.294;11.816;2023-04-25T09:34:47;4.00;;;2.20;;
68938;SDS011;59064;45.294;11.816;2023-04-25T09:37:23;4.10;;;2.50;;
68938;SDS011;59064;45.294;11.816;2023-04-25T09:39:59;4.30;;;2.00;;
68938;SDS011;59064;45.294;11.816;2023-04-25T09:42:28;3.30;;;1.70;;
68938;SDS011;59064;45.294;11.816;2023-04-25T09:45:18;5.80;;;2.80;;
68938;SDS011;59064;45.294;11.816;2023-04-25T09:47:42;7.00;;;2.90;;
68938;SDS011;59064;45.294;11.816;2023-04-25T09:50:15;3.80;;;2.50;;
68938;SDS011;59064;45.294;11.816;2023-04-25T09:52:44;4.10;;;2.10;;
68938;SDS011;59064;45.294;11.816;2023-04-25T09:55:11;6.20;;;2.10;;
68938;SDS011;59064;45.294;11.816;2023-04-25T09:57:36;3.80;;;1.90;;
68938;SDS011;59064;45.294;11.816;2023-04-25T10:00:05;3.10;;;1.60;;
68938;SDS011;59064;45.294;11.816;2023-04-25T10:02:37;3.40;;;1.30;;
68938;SDS011;59064;45.294;11.816;2023-04-25T10:05:05;1.90;;;1.00;;
68938;SDS011;59064;45.294;11.816;2023-04-25T10:07:36;2.20;;;0.90;;
68938;SDS011;59064;45.294;11.816;2023-04-25T10:10:06;2.90;;;1.10;;
68938;SDS011;59064;45.294;11.816;2023-04-25T10:12:33;2.60;;;1.30;;
68938;SDS011;59064;45.294;11.816;2023-04-25T10:15:05;2.60;;;1.30;;
68938;SDS011;59064;45.294;11.816;2023-04-25T10:17:33;5.40;;;1.60;;
68938;SDS011;59064;45.294;11.816;2023-04-25T10:20:03;3.40;;;1.20;;
68938;SDS011;59064;45.294;11.816;2023-04-25T10:22:41;5.20;;;1.30;;
68938;SDS011;59064;45.294;11.816;2023-04-25T10:25:11;2.50;;;1.00;;
68938;SDS011;59064;45.294;11.816;2023-04-25T10:27:39;4.00;;;1.40;;
68938;SDS011;59064;45.294;11.816;2023-04-25T10:30:08;7.50;;;1.30;;
68938;SDS011;59064;45.294;11.816;2023-04-25T10:32:37;2.90;;;0.90;;
68938;SDS011;59064;45.294;11.816;2023-04-25T10:35:13;5.40;;;1.20;;
68938;SDS011;59064;45.294;11.816;2023-04-25T10:40:30;5.20;;;1.50;;
68938;SDS011;59064;45.294;11.816;2023-04-25T10:43:33;5.40;;;1.60;;
68938;SDS011;59064;45.294;11.816;2023-04-25T10:48:59;5.00;;;2.00;;
68938;SDS011;59064;45.294;11.816;2023-04-25T10:51:27;2.70;;;1.10;;
68938;SDS011;59064;45.294;11.816;2023-04-25T10:56:49;2.40;;;1.00;;
68938;SDS011;59064;45.294;11.816;2023-04-25T10:59:19;3.90;;;1.50;;
68938;SDS011;59064;45.294;11.816;2023-04-25T11:01:46;2.30;;;1.00;;
68938;SDS011;59064;45.294;11.816;2023-04-25T11:04:33;3.30;;;1.10;;
68938;SDS011;59064;45.294;11.816;2023-04-25T11:09:40;1.60;;;0.70;;
68938;SDS011;59064;45.294;11.816;2023-04-25T11:12:07;2.30;;;0.80;;
68938;SDS011;59064;45.294;11.816;2023-04-25T11:14:34;1.50;;;0.70;;
68938;SDS011;59064;45.294;11.816;2023-04-25T11:17:14;2.80;;;0.60;;
68938;SDS011;59064;45.294;11.816;2023-04-25T11:19:40;2.00;;;0.70;;
68938;SDS011;59064;45.294;11.816;2023-04-25T11:22:05;1.90;;;0.70;;
68938;SDS011;59064;45.294;11.816;2023-04-25T11:24:32;2.30;;;0.70;;
68938;SDS011;59064;45.294;11.816;2023-04-25T11:27:03;1.50;;;0.80;;
68938;SDS011;59064;45.294;11.816;2023-04-25T11:29:33;3.90;;;0.80;;
68938;SDS011;59064;45.294;11.816;2023-04-25T11:32:02;3.00;;;0.80;;
68938;SDS011;59064;45.294;11.816;2023-04-25T11:34:28;1.20;;;0.70;;
68938;SDS011;59064;45.294;11.816;2023-04-25T11:36:58;1.70;;;0.60;;
68938;SDS011;59064;45.294;11.816;2023-04-25T11:39:25;0.80;;;0.50;;
68938;SDS011;59064;45.294;11.816;2023-04-25T11:41:52;1.70;;;0.60;;
68938;SDS011;59064;45.294;11.816;2023-04-25T11:44:18;1.00;;;0.50;;
68938;SDS011;59064;45.294;11.816;2023-04-25T11:46:44;1.10;;;0.60;;
68938;SDS011;59064;45.294;11.816;2023-04-25T11:49:11;1.50;;;0.50;;
68938;SDS011;59064;45.294;11.816;2023-04-25T11:51:38;1.10;;;0.50;;
68938;SDS011;59064;45.294;11.816;2023-04-25T11:54:08;2.10;;;0.60;;
68938;SDS011;59064;45.294;11.816;2023-04-25T11:56:36;1.00;;;0.40;;
68938;SDS011;59064;45.294;11.816;2023-04-25T11:59:07;1.40;;;0.50;;
68938;SDS011;59064;45.294;11.816;2023-04-25T12:01:34;1.20;;;0.60;;
68938;SDS011;59064;45.294;11.816;2023-04-25T12:06:37;1.20;;;0.60;;
68938;SDS011;59064;45.294;11.816;2023-04-25T12:09:07;1.00;;;0.50;;
68938;SDS011;59064;45.294;11.816;2023-04-25T12:14:34;2.30;;;0.70;;
68938;SDS011;59064;45.294;11.816;2023-04-25T12:17:01;1.50;;;0.60;;
68938;SDS011;59064;45.294;11.816;2023-04-25T12:19:35;1.50;;;0.50;;
68938;SDS011;59064;45.294;11.816;2023-04-25T12:22:02;1.50;;;0.50;;
68938;SDS011;59064;45.294;11.816;2023-04-25T12:24:28;1.50;;;0.60;;
68938;SDS011;59064;45.294;11.816;2023-04-25T12:29:30;3.20;;;1.30;;
68938;SDS011;59064;45.294;11.816;2023-04-25T12:31:57;3.80;;;1.30;;
68938;SDS011;59064;45.294;11.816;2023-04-25T12:34:27;3.70;;;1.90;;
68938;SDS011;59064;45.294;11.816;2023-04-25T12:36:53;1.60;;;0.50;;
68938;SDS011;59064;45.294;11.816;2023-04-25T12:39:20;2.40;;;0.90;;
68938;SDS011;59064;45.294;11.816;2023-04-25T12:41:50;2.90;;;1.00;;
68938;SDS011;59064;45.294;11.816;2023-04-25T12:44:32;2.00;;;0.60;;
68938;SDS011;59064;45.294;11.816;2023-04-25T12:47:01;5.80;;;0.80;;
68938;SDS011;59064;45.294;11.816;2023-04-25T12:49:31;1.30;;;0.60;;
68938;SDS011;59064;45.294;11.816;2023-04-25T12:51:57;2.10;;;0.70;;
68938;SDS011;59064;45.294;11.816;2023-04-25T12:54:23;3.70;;;1.00;;
68938;SDS011;59064;45.294;11.816;2023-04-25T12:56:51;1.80;;;0.80;;
68938;SDS011;59064;45.294;11.816;2023-04-25T12:59:17;4.00;;;2.20;;
68938;SDS011;59064;45.294;11.816;2023-04-25T13:01:43;5.30;;;1.50;;
68938;SDS011;59064;45.294;11.816;2023-04-25T13:04:10;3.00;;;1.40;;
68938;SDS011;59064;45.294;11.816;2023-04-25T13:06:36;3.50;;;1.50;;
68938;SDS011;59064;45.294;11.816;2023-04-25T13:09:02;2.60;;;1.00;;
68938;SDS011;59064;45.294;11.816;2023-04-25T13:11:28;3.90;;;1.70;;
68938;SDS011;59064;45.294;11.816;2023-04-25T13:13:55;3.70;;;1.40;;
68938;SDS011;59064;45.294;11.816;2023-04-25T13:16:21;2.00;;;0.80;;
68938;SDS011;59064;45.294;11.816;2023-04-25T13:18:47;3.30;;;1.50;;
68938;SDS011;59064;45.294;11.816;2023-04-25T13:21:13;2.10;;;0.90;;
68938;SDS011;59064;45.294;11.816;2023-04-25T13:23:40;1.90;;;0.90;;
68938;SDS011;59064;45.294;11.816;2023-04-25T13:26:07;7.50;;;4.70;;
68938;SDS011;59064;45.294;11.816;2023-04-25T13:28:33;4.00;;;1.70;;
68938;SDS011;59064;45.294;11.816;2023-04-25T13:30:58;6.10;;;3.70;;
68938;SDS011;59064;45.294;11.816;2023-04-25T13:33:25;3.70;;;1.80;;
68938;SDS011;59064;45.294;11.816;2023-04-25T13:35:52;3.50;;;1.80;;
68938;SDS011;59064;45.294;11.816;2023-04-25T13:38:22;3.10;;;1.30;;
68938;SDS011;59064;45.294;11.816;2023-04-25T13:40:49;2.60;;;0.80;;
68938;SDS011;59064;45.294;11.816;2023-04-25T13:43:18;2.90;;;1.00;;
68938;SDS011;59064;45.294;11.816;2023-04-25T13:45:45;2.00;;;1.20;;
68938;SDS011;59064;45.294;11.816;2023-04-25T13:48:11;2.00;;;0.80;;
68938;SDS011;59064;45.294;11.816;2023-04-25T13:50:38;2.20;;;0.90;;
68938;SDS011;59064;45.294;11.816;2023-04-25T13:53:03;3.30;;;1.00;;
68938;SDS011;59064;45.294;11.816;2023-04-25T13:55:29;1.80;;;0.80;;
68938;SDS011;59064;45.294;11.816;2023-04-25T13:57:55;1.60;;;0.70;;
68938;SDS011;59064;45.294;11.816;2023-04-25T14:00:22;1.30;;;0.60;;
68938;SDS011;59064;45.294;11.816;2023-04-25T14:02:48;2.20;;;0.90;;
68938;SDS011;59064;45.294;11.816;2023-04-25T14:05:14;2.30;;;1.00;;
68938;SDS011;59064;45.294;11.816;2023-04-25T14:07:40;1.40;;;0.60;;
68938;SDS011;59064;45.294;11.816;2023-04-25T14:10:07;2.10;;;0.80;;
68938;SDS011;59064;45.294;11.816;2023-04-25T14:12:33;2.50;;;0.90;;
68938;SDS011;59064;45.294;11.816;2023-04-25T14:14:58;2.50;;;1.10;;
68938;SDS011;59064;45.294;11.816;2023-04-25T14:17:24;3.20;;;1.20;;
68938;SDS011;59064;45.294;11.816;2023-04-25T14:19:50;2.40;;;1.10;;
68938;SDS011;59064;45.294;11.816;2023-04-25T14:22:19;3.30;;;1.00;;
68938;SDS011;59064;45.294;11.816;2023-04-25T14:24:45;2.00;;;1.00;;
68938;SDS011;59064;45.294;11.816;2023-04-25T14:27:11;2.20;;;0.90;;
68938;SDS011;59064;45.294;11.816;2023-04-25T14:29:38;3.20;;;1.00;;
68938;SDS011;59064;45.294;11.816;2023-04-25T14:32:03;3.00;;;1.00;;
68938;SDS011;59064;45.294;11.816;2023-04-25T14:34:30;2.50;;;1.10;;
68938;SDS011;59064;45.294;11.816;2023-04-25T14:36:56;2.30;;;1.00;;
68938;SDS011;59064;45.294;11.816;2023-04-25T14:39:23;2.10;;;1.00;;
68938;SDS011;59064;45.294;11.816;2023-04-25T14:41:49;2.40;;;1.00;;
68938;SDS011;59064;45.294;11.816;2023-04-25T14:44:15;2.70;;;1.10;;
68938;SDS011;59064;45.294;11.816;2023-04-25T14:46:40;3.80;;;1.10;;
68938;SDS011;59064;45.294;11.816;2023-04-25T14:49:06;4.50;;;0.90;;
68938;SDS011;59064;45.294;11.816;2023-04-25T14:51:32;3.40;;;1.20;;
68938;SDS011;59064;45.294;11.816;2023-04-25T14:53:59;2.60;;;1.00;;
68938;SDS011;59064;45.294;11.816;2023-04-25T14:56:24;2.60;;;1.00;;
68938;SDS011;59064;45.294;11.816;2023-04-25T14:58:50;2.40;;;1.10;;
68938;SDS011;59064;45.294;11.816;2023-04-25T15:01:16;2.60;;;1.30;;
68938;SDS011;59064;45.294;11.816;2023-04-25T15:03:41;2.10;;;1.00;;